sensor_id;sensor_type;location;lat;lon;timestamp;temperature;humidity
60309;DHT22;50313;52.894;6.492;2023-05-23T00:01:15;13.40;99.90
60309;DHT22;50313;52.894;6.492;2023-05-23T00:03:42;13.30;99.90
60309;DHT22;50313;52.894;6.492;2023-05-23T00:06:07;13.40;99.90
60309;DHT22;50313;52.894;6.492;2023-05-23T00:08:33;13.40;99.90
60309;DHT22;50313;52.894;6.492;2023-05-23T00:10:59;13.40;99.90
60309;DHT22;50313;52.894;6.492;2023-05-23T00:13:25;13.40;99.90
60309;DHT22;50313;52.894;6.492;2023-05-23T00:15:51;13.40;99.90
60309;DHT22;50313;52.894;6.492;2023-05-23T00:18:17;13.30;99.90
60309;DHT22;50313;52.894;6.492;2023-05-23T00:20:43;13.30;99.90
60309;DHT22;50313;52.894;6.492;2023-05-23T00:23:10;13.30;99.90
60309;DHT22;50313;52.894;6.492;2023-05-23T00:25:38;13.30;99.90
60309;DHT22;50313;52.894;6.492;2023-05-23T00:28:05;13.30;99.90
60309;DHT22;50313;52.894;6.492;2023-05-23T00:30:32;13.20;99.90
60309;DHT22;50313;52.894;6.492;2023-05-23T00:32:58;13.30;99.90
60309;DHT22;50313;52.894;6.492;2023-05-23T00:35:25;13.30;99.90
60309;DHT22;50313;52.894;6.492;2023-05-23T00:37:51;13.30;99.90
60309;DHT22;50313;52.894;6.492;2023-05-23T00:40:18;13.20;99.90
60309;DHT22;50313;52.894;6.492;2023-05-23T00:42:44;13.20;99.90
60309;DHT22;50313;52.894;6.492;2023-05-23T00:45:10;13.20;99.90
60309;DHT22;50313;52.894;6.492;2023-05-23T00:47:42;13.20;99.90
60309;DHT22;50313;52.894;6.492;2023-05-23T00:50:10;13.20;99.90
60309;DHT22;50313;52.894;6.492;2023-05-23T00:52:37;13.10;99.90
60309;DHT22;50313;52.894;6.492;2023-05-23T00:55:04;13.10;99.90
60309;DHT22;50313;52.894;6.492;2023-05-23T00:57:30;13.10;99.90
60309;DHT22;50313;52.894;6.492;2023-05-23T01:00:00;13.10;99.90
60309;DHT22;50313;52.894;6.492;2023-05-23T01:02:26;13.10;99.90
60309;DHT22;50313;52.894;6.492;2023-05-23T01:04:54;13.00;99.90
60309;DHT22;50313;52.894;6.492;2023-05-23T01:07:20;13.00;99.90
60309;DHT22;50313;52.894;6.492;2023-05-23T01:09:46;13.00;99.90
60309;DHT22;50313;52.894;6.492;2023-05-23T01:12:29;13.00;99.90
60309;DHT22;50313;52.894;6.492;2023-05-23T01:15:07;13.00;99.90
60309;DHT22;50313;52.894;6.492;2023-05-23T01:17:58;13.00;99.90
60309;DHT22;50313;52.894;6.492;2023-05-23T01:20:33;13.00;99.90
60309;DHT22;50313;52.894;6.492;2023-05-23T01:28:37;13.00;99.90
60309;DHT22;50313;52.894;6.492;2023-05-23T01:31:07;13.00;99.90
60309;DHT22;50313;52.894;6.492;2023-05-23T01:33:34;13.00;99.90
60309;DHT22;50313;52.894;6.492;2023-05-23T01:36:01;12.90;99.90
60309;DHT22;50313;52.894;6.492;2023-05-23T01:38:30;12.90;99.90
60309;DHT22;50313;52.894;6.492;2023-05-23T01:40:56;12.90;99.90
60309;DHT22;50313;52.894;6.492;2023-05-23T01:43:23;12.80;99.90
60309;DHT22;50313;52.894;6.492;2023-05-23T01:45:51;12.80;99.90
60309;DHT22;50313;52.894;6.492;2023-05-23T01:48:18;12.80;99.90
60309;DHT22;50313;52.894;6.492;2023-05-23T01:50:45;12.70;99.90
60309;DHT22;50313;52.894;6.492;2023-05-23T01:53:13;12.70;99.90
60309;DHT22;50313;52.894;6.492;2023-05-23T01:55:40;12.70;99.90
60309;DHT22;50313;52.894;6.492;2023-05-23T01:58:07;12.60;99.90
60309;DHT22;50313;52.894;6.492;2023-05-23T02:00:32;12.60;99.90
60309;DHT22;50313;52.894;6.492;2023-05-23T02:02:58;12.50;99.90
60309;DHT22;50313;52.894;6.492;2023-05-23T02:05:24;12.50;99.90
60309;DHT22;50313;52.894;6.492;2023-05-23T02:07:50;12.50;99.90
60309;DHT22;50313;52.894;6.492;2023-05-23T02:10:16;12.50;99.90
60309;DHT22;50313;52.894;6.492;2023-05-23T02:12:42;12.40;99.90
60309;DHT22;50313;52.894;6.492;2023-05-23T02:15:07;12.40;99.90
60309;DHT22;50313;52.894;6.492;2023-05-23T02:17:33;12.40;99.90
60309;DHT22;50313;52.894;6.492;2023-05-23T02:19:59;12.40;99.90
60309;DHT22;50313;52.894;6.492;2023-05-23T02:22:25;12.40;99.90
60309;DHT22;50313;52.894;6.492;2023-05-23T02:24:54;12.30;99.90
60309;DHT22;50313;52.894;6.492;2023-05-23T02:27:20;12.40;99.90
60309;DHT22;50313;52.894;6.492;2023-05-23T02:29:45;12.40;99.90
60309;DHT22;50313;52.894;6.492;2023-05-23T02:32:11;12.30;99.90
60309;DHT22;50313;52.894;6.492;2023-05-23T02:34:37;12.30;99.90
60309;DHT22;50313;52.894;6.492;2023-05-23T02:37:02;12.20;99.90
60309;DHT22;50313;52.894;6.492;2023-05-23T02:39:28;12.20;99.90
60309;DHT22;50313;52.894;6.492;2023-05-23T02:41:54;12.20;99.90
60309;DHT22;50313;52.894;6.492;2023-05-23T02:44:19;12.20;99.90
60309;DHT22;50313;52.894;6.492;2023-05-23T02:46:45;12.20;99.90
60309;DHT22;50313;52.894;6.492;2023-05-23T02:49:11;12.20;99.90
60309;DHT22;50313;52.894;6.492;2023-05-23T02:51:37;12.20;99.90
60309;DHT22;50313;52.894;6.492;2023-05-23T02:54:02;12.20;99.90
60309;DHT22;50313;52.894;6.492;2023-05-23T02:56:28;12.10;99.90
60309;DHT22;50313;52.894;6.492;2023-05-23T02:58:54;12.10;99.90
60309;DHT22;50313;52.894;6.492;2023-05-23T03:01:19;12.10;99.90
60309;DHT22;50313;52.894;6.492;2023-05-23T03:03:45;12.10;99.90
60309;DHT22;50313;52.894;6.492;2023-05-23T03:06:11;12.10;99.90
60309;DHT22;50313;52.894;6.492;2023-05-23T03:08:42;12.10;99.90
60309;DHT22;50313;52.894;6.492;2023-05-23T03:11:08;12.10;99.90
60309;DHT22;50313;52.894;6.492;2023-05-23T03:13:34;12.10;99.90
60309;DHT22;50313;52.894;6.492;2023-05-23T03:16:00;12.00;99.90
60309;DHT22;50313;52.894;6.492;2023-05-23T03:18:26;12.00;99.90
60309;DHT22;50313;52.894;6.492;2023-05-23T03:20:51;12.00;99.90
60309;DHT22;50313;52.894;6.492;2023-05-23T03:23:17;12.00;99.90
60309;DHT22;50313;52.894;6.492;2023-05-23T03:25:43;12.00;99.90
60309;DHT22;50313;52.894;6.492;2023-05-23T03:28:09;12.00;99.90
60309;DHT22;50313;52.894;6.492;2023-05-23T03:30:39;12.00;99.90
60309;DHT22;50313;52.894;6.492;2023-05-23T03:33:05;12.00;99.90
60309;DHT22;50313;52.894;6.492;2023-05-23T03:35:34;12.00;99.90
60309;DHT22;50313;52.894;6.492;2023-05-23T03:38:00;12.00;99.90
60309;DHT22;50313;52.894;6.492;2023-05-23T03:40:25;12.00;99.90
60309;DHT22;50313;52.894;6.492;2023-05-23T03:43:02;12.00;99.90
60309;DHT22;50313;52.894;6.492;2023-05-23T03:45:30;12.00;99.90
60309;DHT22;50313;52.894;6.492;2023-05-23T03:47:56;12.00;99.90
60309;DHT22;50313;52.894;6.492;2023-05-23T03:50:21;12.00;99.90
60309;DHT22;50313;52.894;6.492;2023-05-23T03:52:47;12.00;99.90
60309;DHT22;50313;52.894;6.492;2023-05-23T03:55:13;12.00;99.90
60309;DHT22;50313;52.894;6.492;2023-05-23T03:57:39;12.00;99.90
60309;DHT22;50313;52.894;6.492;2023-05-23T04:00:05;12.00;99.90
60309;DHT22;50313;52.894;6.492;2023-05-23T04:02:36;12.00;99.90
60309;DHT22;50313;52.894;6.492;2023-05-23T04:05:05;11.90;99.90
60309;DHT22;50313;52.894;6.492;2023-05-23T04:07:32;12.00;99.90
60309;DHT22;50313;52.894;6.492;2023-05-23T04:10:02;12.00;99.90
60309;DHT22;50313;52.894;6.492;2023-05-23T04:12:28;12.00;99.90
60309;DHT22;50313;52.894;6.492;2023-05-23T04:14:56;12.00;99.90
60309;DHT22;50313;52.894;6.492;2023-05-23T04:17:22;11.90;99.90
60309;DHT22;50313;52.894;6.492;2023-05-23T04:19:49;11.90;99.90
60309;DHT22;50313;52.894;6.492;2023-05-23T04:22:18;11.90;99.90
60309;DHT22;50313;52.894;6.492;2023-05-23T04:24:43;12.00;99.90
60309;DHT22;50313;52.894;6.492;2023-05-23T04:27:09;11.90;99.90
60309;DHT22;50313;52.894;6.492;2023-05-23T04:29:35;11.90;99.90
60309;DHT22;50313;52.894;6.492;2023-05-23T04:32:04;11.90;99.90
60309;DHT22;50313;52.894;6.492;2023-05-23T04:34:31;11.90;99.90
60309;DHT22;50313;52.894;6.492;2023-05-23T04:37:00;11.90;99.90
60309;DHT22;50313;52.894;6.492;2023-05-23T04:39:29;11.80;99.90
60309;DHT22;50313;52.894;6.492;2023-05-23T04:41:55;11.80;99.90
60309;DHT22;50313;52.894;6.492;2023-05-23T04:44:24;11.80;99.90
60309;DHT22;50313;52.894;6.492;2023-05-23T04:46:51;11.70;99.90
60309;DHT22;50313;52.894;6.492;2023-05-23T04:49:16;11.70;99.90
60309;DHT22;50313;52.894;6.492;2023-05-23T04:51:42;11.80;99.90
60309;DHT22;50313;52.894;6.492;2023-05-23T04:54:08;11.80;99.90
60309;DHT22;50313;52.894;6.492;2023-05-23T04:56:34;11.70;99.90
60309;DHT22;50313;52.894;6.492;2023-05-23T04:59:00;11.70;99.90
60309;DHT22;50313;52.894;6.492;2023-05-23T05:01:26;11.70;99.90
60309;DHT22;50313;52.894;6.492;2023-05-23T05:03:52;11.70;99.90
60309;DHT22;50313;52.894;6.492;2023-05-23T05:06:18;11.70;99.90
60309;DHT22;50313;52.894;6.492;2023-05-23T05:08:43;11.70;99.90
60309;DHT22;50313;52.894;6.492;2023-05-23T05:11:09;11.60;99.90
60309;DHT22;50313;52.894;6.492;2023-05-23T05:13:35;11.60;99.90
60309;DHT22;50313;52.894;6.492;2023-05-23T05:16:01;11.60;99.90
60309;DHT22;50313;52.894;6.492;2023-05-23T05:18:29;11.60;99.90
60309;DHT22;50313;52.894;6.492;2023-05-23T05:20:55;11.60;99.90
60309;DHT22;50313;52.894;6.492;2023-05-23T05:23:24;11.50;99.90
60309;DHT22;50313;52.894;6.492;2023-05-23T05:25:50;11.50;99.90
60309;DHT22;50313;52.894;6.492;2023-05-23T05:28:16;11.50;99.90
60309;DHT22;50313;52.894;6.492;2023-05-23T05:30:42;11.40;99.90
60309;DHT22;50313;52.894;6.492;2023-05-23T05:33:07;11.40;99.90
60309;DHT22;50313;52.894;6.492;2023-05-23T05:35:34;11.40;99.90
60309;DHT22;50313;52.894;6.492;2023-05-23T05:38:00;11.30;99.90
60309;DHT22;50313;52.894;6.492;2023-05-23T05:40:27;11.30;99.90
60309;DHT22;50313;52.894;6.492;2023-05-23T05:42:53;11.30;99.90
60309;DHT22;50313;52.894;6.492;2023-05-23T05:45:18;11.20;99.90
60309;DHT22;50313;52.894;6.492;2023-05-23T05:47:45;11.20;99.90
60309;DHT22;50313;52.894;6.492;2023-05-23T05:50:11;11.20;99.90
60309;DHT22;50313;52.894;6.492;2023-05-23T05:52:37;11.20;99.90
60309;DHT22;50313;52.894;6.492;2023-05-23T05:55:08;11.20;99.90
60309;DHT22;50313;52.894;6.492;2023-05-23T05:57:37;11.20;99.90
60309;DHT22;50313;52.894;6.492;2023-05-23T06:00:09;11.30;99.90
60309;DHT22;50313;52.894;6.492;2023-05-23T06:02:41;11.20;99.90
60309;DHT22;50313;52.894;6.492;2023-05-23T06:05:17;11.20;99.90
60309;DHT22;50313;52.894;6.492;2023-05-23T06:07:48;11.20;99.90
60309;DHT22;50313;52.894;6.492;2023-05-23T06:10:14;11.30;99.90
60309;DHT22;50313;52.894;6.492;2023-05-23T06:12:40;11.30;99.90
60309;DHT22;50313;52.894;6.492;2023-05-23T06:15:07;11.30;99.90
60309;DHT22;50313;52.894;6.492;2023-05-23T06:17:34;11.30;99.90
60309;DHT22;50313;52.894;6.492;2023-05-23T06:20:00;11.30;99.90
60309;DHT22;50313;52.894;6.492;2023-05-23T06:22:26;11.30;99.90
60309;DHT22;50313;52.894;6.492;2023-05-23T06:24:51;11.30;99.90
60309;DHT22;50313;52.894;6.492;2023-05-23T06:27:17;11.30;99.90
60309;DHT22;50313;52.894;6.492;2023-05-23T06:29:45;11.30;99.90
60309;DHT22;50313;52.894;6.492;2023-05-23T06:32:11;11.20;99.90
60309;DHT22;50313;52.894;6.492;2023-05-23T06:34:37;11.20;99.90
60309;DHT22;50313;52.894;6.492;2023-05-23T06:37:02;11.20;99.90
60309;DHT22;50313;52.894;6.492;2023-05-23T06:39:28;11.20;99.90
60309;DHT22;50313;52.894;6.492;2023-05-23T06:41:54;11.30;99.90
60309;DHT22;50313;52.894;6.492;2023-05-23T06:44:20;11.30;99.90
60309;DHT22;50313;52.894;6.492;2023-05-23T06:46:46;11.40;99.90
60309;DHT22;50313;52.894;6.492;2023-05-23T06:49:12;11.40;99.90
60309;DHT22;50313;52.894;6.492;2023-05-23T06:51:38;11.40;99.90
60309;DHT22;50313;52.894;6.492;2023-05-23T06:54:04;11.40;99.90
60309;DHT22;50313;52.894;6.492;2023-05-23T06:56:29;11.40;99.90
60309;DHT22;50313;52.894;6.492;2023-05-23T06:58:55;11.30;99.90
60309;DHT22;50313;52.894;6.492;2023-05-23T07:01:21;11.40;99.90
60309;DHT22;50313;52.894;6.492;2023-05-23T07:04:09;11.30;99.90
60309;DHT22;50313;52.894;6.492;2023-05-23T07:07:01;11.40;99.90
60309;DHT22;50313;52.894;6.492;2023-05-23T07:09:49;11.40;99.90
60309;DHT22;50313;52.894;6.492;2023-05-23T07:12:20;11.50;99.90
60309;DHT22;50313;52.894;6.492;2023-05-23T07:14:46;11.50;99.90
60309;DHT22;50313;52.894;6.492;2023-05-23T07:17:11;11.50;99.90
60309;DHT22;50313;52.894;6.492;2023-05-23T07:19:37;11.50;99.90
60309;DHT22;50313;52.894;6.492;2023-05-23T07:22:03;11.50;99.90
60309;DHT22;50313;52.894;6.492;2023-05-23T07:24:29;11.50;99.90
60309;DHT22;50313;52.894;6.492;2023-05-23T07:26:54;11.60;99.90
60309;DHT22;50313;52.894;6.492;2023-05-23T07:29:20;11.70;99.90
60309;DHT22;50313;52.894;6.492;2023-05-23T07:31:46;11.90;99.90
60309;DHT22;50313;52.894;6.492;2023-05-23T07:34:11;12.00;99.90
60309;DHT22;50313;52.894;6.492;2023-05-23T07:36:37;12.10;99.90
60309;DHT22;50313;52.894;6.492;2023-05-23T07:39:05;12.10;99.90
60309;DHT22;50313;52.894;6.492;2023-05-23T07:41:31;12.10;99.90
60309;DHT22;50313;52.894;6.492;2023-05-23T07:43:57;11.90;99.90
60309;DHT22;50313;52.894;6.492;2023-05-23T07:46:22;11.80;99.90
60309;DHT22;50313;52.894;6.492;2023-05-23T07:48:48;11.80;99.90
60309;DHT22;50313;52.894;6.492;2023-05-23T07:51:14;11.80;99.90
60309;DHT22;50313;52.894;6.492;2023-05-23T07:53:40;11.70;99.90
60309;DHT22;50313;52.894;6.492;2023-05-23T07:56:06;11.80;99.90
60309;DHT22;50313;52.894;6.492;2023-05-23T07:58:31;11.90;99.90
60309;DHT22;50313;52.894;6.492;2023-05-23T08:00:57;12.00;99.90
60309;DHT22;50313;52.894;6.492;2023-05-23T08:03:23;12.10;99.90
60309;DHT22;50313;52.894;6.492;2023-05-23T08:05:50;12.00;99.90
60309;DHT22;50313;52.894;6.492;2023-05-23T08:08:16;12.10;99.90
60309;DHT22;50313;52.894;6.492;2023-05-23T08:10:42;12.10;99.90
60309;DHT22;50313;52.894;6.492;2023-05-23T08:13:10;12.10;99.90
60309;DHT22;50313;52.894;6.492;2023-05-23T08:15:35;12.20;99.90
60309;DHT22;50313;52.894;6.492;2023-05-23T08:18:02;12.50;99.90
60309;DHT22;50313;52.894;6.492;2023-05-23T08:20:28;12.60;99.90
60309;DHT22;50313;52.894;6.492;2023-05-23T08:22:58;12.50;99.90
60309;DHT22;50313;52.894;6.492;2023-05-23T08:25:23;12.50;99.90
60309;DHT22;50313;52.894;6.492;2023-05-23T08:27:49;12.60;99.90
60309;DHT22;50313;52.894;6.492;2023-05-23T08:30:15;12.70;99.90
60309;DHT22;50313;52.894;6.492;2023-05-23T08:32:41;12.90;99.90
60309;DHT22;50313;52.894;6.492;2023-05-23T08:35:07;12.90;99.90
60309;DHT22;50313;52.894;6.492;2023-05-23T08:37:33;13.20;99.90
60309;DHT22;50313;52.894;6.492;2023-05-23T08:39:58;13.30;99.90
60309;DHT22;50313;52.894;6.492;2023-05-23T08:42:34;13.70;99.90
60309;DHT22;50313;52.894;6.492;2023-05-23T08:44:59;13.90;99.90
60309;DHT22;50313;52.894;6.492;2023-05-23T08:47:26;13.80;99.90
60309;DHT22;50313;52.894;6.492;2023-05-23T08:49:54;13.60;99.90
60309;DHT22;50313;52.894;6.492;2023-05-23T08:55:24;13.60;99.90
60309;DHT22;50313;52.894;6.492;2023-05-23T08:58:13;13.50;99.90
60309;DHT22;50313;52.894;6.492;2023-05-23T09:01:25;13.40;99.90
60309;DHT22;50313;52.894;6.492;2023-05-23T09:07:17;13.40;99.90
60309;DHT22;50313;52.894;6.492;2023-05-23T09:12:50;13.90;99.90
60309;DHT22;50313;52.894;6.492;2023-05-23T09:15:20;14.10;99.90
60309;DHT22;50313;52.894;6.492;2023-05-23T09:18:00;14.20;99.90
60309;DHT22;50313;52.894;6.492;2023-05-23T09:20:30;14.00;99.90
60309;DHT22;50313;52.894;6.492;2023-05-23T09:22:56;13.50;99.60
60309;DHT22;50313;52.894;6.492;2023-05-23T09:25:22;13.40;99.90
60309;DHT22;50313;52.894;6.492;2023-05-23T09:27:51;13.20;99.90
60309;DHT22;50313;52.894;6.492;2023-05-23T09:30:21;13.50;99.90
60309;DHT22;50313;52.894;6.492;2023-05-23T09:32:59;13.80;99.90
60309;DHT22;50313;52.894;6.492;2023-05-23T09:35:27;14.00;99.90
60309;DHT22;50313;52.894;6.492;2023-05-23T09:38:01;14.30;99.80
60309;DHT22;50313;52.894;6.492;2023-05-23T09:40:30;14.30;98.40
60309;DHT22;50313;52.894;6.492;2023-05-23T09:43:03;14.40;99.80
60309;DHT22;50313;52.894;6.492;2023-05-23T09:45:30;14.80;99.90
60309;DHT22;50313;52.894;6.492;2023-05-23T09:47:56;14.20;97.40
60309;DHT22;50313;52.894;6.492;2023-05-23T09:50:22;13.70;98.00
60309;DHT22;50313;52.894;6.492;2023-05-23T09:52:49;14.10;98.90
60309;DHT22;50313;52.894;6.492;2023-05-23T09:55:16;14.50;99.30
60309;DHT22;50313;52.894;6.492;2023-05-23T09:57:42;14.50;97.10
60309;DHT22;50313;52.894;6.492;2023-05-23T10:00:11;14.50;98.10
60309;DHT22;50313;52.894;6.492;2023-05-23T10:03:03;14.30;98.60
60309;DHT22;50313;52.894;6.492;2023-05-23T10:05:47;14.20;97.80
60309;DHT22;50313;52.894;6.492;2023-05-23T10:08:24;14.10;96.80
60309;DHT22;50313;52.894;6.492;2023-05-23T10:13:29;14.70;97.20
60309;DHT22;50313;52.894;6.492;2023-05-23T10:16:01;15.00;97.30
60309;DHT22;50313;52.894;6.492;2023-05-23T10:18:29;14.80;96.60
60309;DHT22;50313;52.894;6.492;2023-05-23T10:21:06;14.60;97.00
60309;DHT22;50313;52.894;6.492;2023-05-23T10:23:37;14.60;96.60
60309;DHT22;50313;52.894;6.492;2023-05-23T10:26:04;14.60;96.10
60309;DHT22;50313;52.894;6.492;2023-05-23T10:28:32;14.40;96.90
60309;DHT22;50313;52.894;6.492;2023-05-23T10:30:58;14.30;95.50
60309;DHT22;50313;52.894;6.492;2023-05-23T10:33:26;14.60;96.30
60309;DHT22;50313;52.894;6.492;2023-05-23T10:35:55;14.90;96.50
60309;DHT22;50313;52.894;6.492;2023-05-23T10:41:10;14.90;96.20
60309;DHT22;50313;52.894;6.492;2023-05-23T10:43:56;14.50;96.60
60309;DHT22;50313;52.894;6.492;2023-05-23T10:46:52;14.10;96.20
60309;DHT22;50313;52.894;6.492;2023-05-23T10:49:43;14.40;97.50
60309;DHT22;50313;52.894;6.492;2023-05-23T10:52:15;14.80;96.80
60309;DHT22;50313;52.894;6.492;2023-05-23T10:57:18;14.70;96.00
60309;DHT22;50313;52.894;6.492;2023-05-23T10:59:45;15.00;95.50
60309;DHT22;50313;52.894;6.492;2023-05-23T11:02:13;14.80;94.80
60309;DHT22;50313;52.894;6.492;2023-05-23T11:04:42;14.70;94.20
60309;DHT22;50313;52.894;6.492;2023-05-23T11:07:27;14.50;95.00
60309;DHT22;50313;52.894;6.492;2023-05-23T11:10:10;14.80;94.90
60309;DHT22;50313;52.894;6.492;2023-05-23T11:12:40;14.80;95.60
60309;DHT22;50313;52.894;6.492;2023-05-23T11:18:02;14.50;95.80
60309;DHT22;50313;52.894;6.492;2023-05-23T11:20:34;14.50;93.90
60309;DHT22;50313;52.894;6.492;2023-05-23T11:23:04;14.90;93.40
60309;DHT22;50313;52.894;6.492;2023-05-23T11:25:43;14.90;92.60
60309;DHT22;50313;52.894;6.492;2023-05-23T11:28:10;14.90;93.50
60309;DHT22;50313;52.894;6.492;2023-05-23T11:30:36;14.70;93.10
60309;DHT22;50313;52.894;6.492;2023-05-23T11:33:12;14.60;94.30
60309;DHT22;50313;52.894;6.492;2023-05-23T11:35:42;14.70;95.10
60309;DHT22;50313;52.894;6.492;2023-05-23T11:38:09;14.50;93.70
60309;DHT22;50313;52.894;6.492;2023-05-23T11:40:41;14.60;94.90
60309;DHT22;50313;52.894;6.492;2023-05-23T11:43:15;14.70;94.50
60309;DHT22;50313;52.894;6.492;2023-05-23T11:45:46;14.50;94.90
60309;DHT22;50313;52.894;6.492;2023-05-23T11:48:13;14.30;95.20
60309;DHT22;50313;52.894;6.492;2023-05-23T11:50:48;14.30;96.50
60309;DHT22;50313;52.894;6.492;2023-05-23T11:53:15;14.10;97.00
60309;DHT22;50313;52.894;6.492;2023-05-23T11:56:01;14.10;96.50
60309;DHT22;50313;52.894;6.492;2023-05-23T11:58:33;14.20;96.00
60309;DHT22;50313;52.894;6.492;2023-05-23T12:01:10;14.30;95.10
60309;DHT22;50313;52.894;6.492;2023-05-23T12:03:51;14.60;95.00
60309;DHT22;50313;52.894;6.492;2023-05-23T12:06:21;14.70;94.10
60309;DHT22;50313;52.894;6.492;2023-05-23T12:08:50;15.10;93.90
60309;DHT22;50313;52.894;6.492;2023-05-23T12:11:16;15.00;94.20
60309;DHT22;50313;52.894;6.492;2023-05-23T12:13:42;14.80;92.80
60309;DHT22;50313;52.894;6.492;2023-05-23T12:16:09;14.70;93.20
60309;DHT22;50313;52.894;6.492;2023-05-23T12:18:36;14.80;94.20
60309;DHT22;50313;52.894;6.492;2023-05-23T12:21:06;14.80;93.20
60309;DHT22;50313;52.894;6.492;2023-05-23T12:23:35;14.60;93.60
60309;DHT22;50313;52.894;6.492;2023-05-23T12:26:06;14.40;93.60
60309;DHT22;50313;52.894;6.492;2023-05-23T12:28:40;15.00;92.80
60309;DHT22;50313;52.894;6.492;2023-05-23T12:31:12;15.30;93.60
60309;DHT22;50313;52.894;6.492;2023-05-23T12:33:39;15.30;93.70
60309;DHT22;50313;52.894;6.492;2023-05-23T12:36:06;15.40;94.20
60309;DHT22;50313;52.894;6.492;2023-05-23T12:38:36;14.80;92.60
60309;DHT22;50313;52.894;6.492;2023-05-23T12:43:47;14.60;92.20
60309;DHT22;50313;52.894;6.492;2023-05-23T12:46:13;14.90;91.70
60309;DHT22;50313;52.894;6.492;2023-05-23T12:48:40;14.60;92.30
60309;DHT22;50313;52.894;6.492;2023-05-23T12:51:05;14.40;92.40
60309;DHT22;50313;52.894;6.492;2023-05-23T12:53:31;14.80;93.50
60309;DHT22;50313;52.894;6.492;2023-05-23T12:55:57;15.00;91.50
60309;DHT22;50313;52.894;6.492;2023-05-23T12:58:22;14.70;91.40
60309;DHT22;50313;52.894;6.492;2023-05-23T13:00:48;14.70;92.20
60309;DHT22;50313;52.894;6.492;2023-05-23T13:03:14;14.50;92.20
60309;DHT22;50313;52.894;6.492;2023-05-23T13:05:41;14.80;93.80
60309;DHT22;50313;52.894;6.492;2023-05-23T13:08:09;14.90;91.10
60309;DHT22;50313;52.894;6.492;2023-05-23T13:10:40;14.50;91.90
60309;DHT22;50313;52.894;6.492;2023-05-23T13:13:06;14.70;92.10
60309;DHT22;50313;52.894;6.492;2023-05-23T13:15:31;14.90;93.50
60309;DHT22;50313;52.894;6.492;2023-05-23T13:17:57;15.00;92.00
60309;DHT22;50313;52.894;6.492;2023-05-23T13:20:25;15.20;90.20
60309;DHT22;50313;52.894;6.492;2023-05-23T13:22:56;15.00;88.80
60309;DHT22;50313;52.894;6.492;2023-05-23T13:25:22;15.50;90.20
60309;DHT22;50313;52.894;6.492;2023-05-23T13:27:48;15.60;89.60
60309;DHT22;50313;52.894;6.492;2023-05-23T13:30:24;15.80;90.20
60309;DHT22;50313;52.894;6.492;2023-05-23T13:32:53;15.20;88.10
60309;DHT22;50313;52.894;6.492;2023-05-23T13:35:21;14.80;90.60
60309;DHT22;50313;52.894;6.492;2023-05-23T13:37:47;14.90;90.60
60309;DHT22;50313;52.894;6.492;2023-05-23T13:40:19;15.30;90.70
60309;DHT22;50313;52.894;6.492;2023-05-23T13:42:49;15.10;90.60
60309;DHT22;50313;52.894;6.492;2023-05-23T13:45:15;14.90;91.50
60309;DHT22;50313;52.894;6.492;2023-05-23T13:47:43;14.60;90.80
60309;DHT22;50313;52.894;6.492;2023-05-23T13:50:09;14.70;91.30
60309;DHT22;50313;52.894;6.492;2023-05-23T13:52:35;14.30;88.20
60309;DHT22;50313;52.894;6.492;2023-05-23T13:55:03;14.80;90.40
60309;DHT22;50313;52.894;6.492;2023-05-23T13:57:29;14.80;90.60
60309;DHT22;50313;52.894;6.492;2023-05-23T13:59:56;14.80;91.60
60309;DHT22;50313;52.894;6.492;2023-05-23T14:02:22;14.70;91.00
60309;DHT22;50313;52.894;6.492;2023-05-23T14:04:48;14.50;90.50
60309;DHT22;50313;52.894;6.492;2023-05-23T14:07:17;14.40;91.70
60309;DHT22;50313;52.894;6.492;2023-05-23T14:09:46;14.40;91.70
60309;DHT22;50313;52.894;6.492;2023-05-23T14:12:12;14.50;91.20
60309;DHT22;50313;52.894;6.492;2023-05-23T14:14:38;14.80;91.10
60309;DHT22;50313;52.894;6.492;2023-05-23T14:17:04;15.30;91.30
60309;DHT22;50313;52.894;6.492;2023-05-23T14:19:30;15.10;91.20
60309;DHT22;50313;52.894;6.492;2023-05-23T14:22:01;14.80;89.30
60309;DHT22;50313;52.894;6.492;2023-05-23T14:24:27;15.00;84.40
60309;DHT22;50313;52.894;6.492;2023-05-23T14:26:55;15.10;86.60
60309;DHT22;50313;52.894;6.492;2023-05-23T14:29:21;15.30;84.40
60309;DHT22;50313;52.894;6.492;2023-05-23T14:31:47;15.50;84.60
60309;DHT22;50313;52.894;6.492;2023-05-23T14:34:12;15.70;84.60
60309;DHT22;50313;52.894;6.492;2023-05-23T14:36:41;15.80;83.40
60309;DHT22;50313;52.894;6.492;2023-05-23T14:39:14;15.50;85.80
60309;DHT22;50313;52.894;6.492;2023-05-23T14:41:40;15.80;83.30
60309;DHT22;50313;52.894;6.492;2023-05-23T14:44:06;16.10;83.60
60309;DHT22;50313;52.894;6.492;2023-05-23T14:46:35;16.20;86.00
60309;DHT22;50313;52.894;6.492;2023-05-23T14:49:03;16.70;82.50
60309;DHT22;50313;52.894;6.492;2023-05-23T14:51:28;16.60;78.10
60309;DHT22;50313;52.894;6.492;2023-05-23T14:53:56;16.90;79.60
60309;DHT22;50313;52.894;6.492;2023-05-23T14:56:24;17.10;79.70
60309;DHT22;50313;52.894;6.492;2023-05-23T14:58:51;16.70;79.40
60309;DHT22;50313;52.894;6.492;2023-05-23T15:01:20;16.70;81.20
60309;DHT22;50313;52.894;6.492;2023-05-23T15:03:46;16.70;76.90
60309;DHT22;50313;52.894;6.492;2023-05-23T15:06:12;16.90;75.10
60309;DHT22;50313;52.894;6.492;2023-05-23T15:08:40;17.10;75.20
60309;DHT22;50313;52.894;6.492;2023-05-23T15:11:06;17.10;78.80
60309;DHT22;50313;52.894;6.492;2023-05-23T15:13:34;16.60;76.70
60309;DHT22;50313;52.894;6.492;2023-05-23T15:16:00;15.80;77.00
60309;DHT22;50313;52.894;6.492;2023-05-23T15:18:25;16.00;78.40
60309;DHT22;50313;52.894;6.492;2023-05-23T15:20:58;15.70;78.70
60309;DHT22;50313;52.894;6.492;2023-05-23T15:23:24;15.80;81.90
60309;DHT22;50313;52.894;6.492;2023-05-23T15:25:53;16.10;78.50
60309;DHT22;50313;52.894;6.492;2023-05-23T15:28:18;16.00;75.90
60309;DHT22;50313;52.894;6.492;2023-05-23T15:30:44;16.10;77.70
60309;DHT22;50313;52.894;6.492;2023-05-23T15:33:10;16.00;77.50
60309;DHT22;50313;52.894;6.492;2023-05-23T15:35:37;15.80;79.40
60309;DHT22;50313;52.894;6.492;2023-05-23T15:38:02;16.00;80.20
60309;DHT22;50313;52.894;6.492;2023-05-23T15:40:28;15.80;80.30
60309;DHT22;50313;52.894;6.492;2023-05-23T15:42:54;15.50;81.30
60309;DHT22;50313;52.894;6.492;2023-05-23T15:45:19;15.00;79.60
60309;DHT22;50313;52.894;6.492;2023-05-23T15:47:45;14.80;78.80
60309;DHT22;50313;52.894;6.492;2023-05-23T15:50:11;14.90;78.80
60309;DHT22;50313;52.894;6.492;2023-05-23T15:52:36;15.40;79.90
60309;DHT22;50313;52.894;6.492;2023-05-23T15:55:05;15.50;74.70
60309;DHT22;50313;52.894;6.492;2023-05-23T15:57:33;15.90;75.20
60309;DHT22;50313;52.894;6.492;2023-05-23T15:59:59;15.90;74.40
60309;DHT22;50313;52.894;6.492;2023-05-23T16:02:25;15.60;77.00
60309;DHT22;50313;52.894;6.492;2023-05-23T16:04:51;15.40;71.40